Wetterstation 29328 Müden/Ö

Wetterdaten: aktuell Dienstag, 14.08.2018 11:00
Datum Zeit Temp. A. Feuchte A. Luftdruck Regen Wind Richtung Richtung Windben
14.08.2018 11:00 19,8 C 81 % 1008,6 hPa 0,0 l/m 8,2 km/h (2 Bft) W-NW 284 16,1 km/h (3 Bft)
14.08.2018 10:55 19,7 C 81 % 1008,6 hPa 0,0 l/m 9,3 km/h (2 Bft) W 271 19,3 km/h (3 Bft)
14.08.2018 10:50 19,4 C 83 % 1008,6 hPa 0,0 l/m 10,0 km/h (2 Bft) NW 317 16,1 km/h (3 Bft)
14.08.2018 10:45 19,3 C 84 % 1008,7 hPa 0,0 l/m 8,4 km/h (2 Bft) W 274 17,7 km/h (3 Bft)
14.08.2018 10:40 19,1 C 86 % 1008,6 hPa 0,0 l/m 4,4 km/h (1 Bft) NW 321 11,3 km/h (2 Bft)
14.08.2018 10:35 18,8 C 86 % 1008,7 hPa 0,0 l/m 4,5 km/h (1 Bft) W-NW 292 12,9 km/h (3 Bft)
14.08.2018 10:30 18,7 C 87 % 1008,6 hPa 0,0 l/m 8,6 km/h (2 Bft) W-SW 257 16,1 km/h (3 Bft)
14.08.2018 10:25 18,6 C 87 % 1008,6 hPa 0,0 l/m 8,0 km/h (2 Bft) W 280 14,5 km/h (3 Bft)
14.08.2018 10:20 18,5 C 88 % 1008,6 hPa 0,0 l/m 8,0 km/h (2 Bft) W 262 19,3 km/h (3 Bft)
14.08.2018 10:15 18,2 C 90 % 1008,5 hPa 0,0 l/m 7,2 km/h (2 Bft) W 263 12,9 km/h (3 Bft)
14.08.2018 10:10 18,1 C 91 % 1008,5 hPa 0,0 l/m 7,1 km/h (2 Bft) W 263 16,1 km/h (3 Bft)
14.08.2018 10:05 17,9 C 91 % 1008,5 hPa 0,0 l/m 7,7 km/h (2 Bft) SW 232 16,1 km/h (3 Bft)
14.08.2018 10:00 17,7 C 92 % 1008,5 hPa 0,0 l/m 6,9 km/h (2 Bft) W-SW 248 14,5 km/h (3 Bft)
14.08.2018 09:55 17,7 C 92 % 1008,4 hPa 0,0 l/m 4,9 km/h (1 Bft) W-NW 292 11,3 km/h (2 Bft)
14.08.2018 09:50 17,5 C 92 % 1008,4 hPa 0,0 l/m 7,5 km/h (2 Bft) W 265 16,1 km/h (3 Bft)
14.08.2018 09:45 17,4 C 93 % 1008,3 hPa 0,0 l/m 6,3 km/h (2 Bft) W 263 12,9 km/h (3 Bft)
14.08.2018 09:40 17,4 C 93 % 1008,3 hPa 0,0 l/m 6,3 km/h (2 Bft) W 279 16,1 km/h (3 Bft)
14.08.2018 09:35 17,4 C 93 % 1008,2 hPa 0,0 l/m 6,0 km/h (2 Bft) W-NW 289 14,5 km/h (3 Bft)
14.08.2018 09:30 17,2 C 93 % 1008,2 hPa 0,0 l/m 7,0 km/h (2 Bft) W 280 16,1 km/h (3 Bft)
14.08.2018 09:25 17,1 C 93 % 1008,2 hPa 0,0 l/m 4,0 km/h (1 Bft) W 273 12,9 km/h (3 Bft)
14.08.2018 09:20 17,1 C 93 % 1008,2 hPa 0,0 l/m 2,5 km/h (1 Bft) SW 235 6,4 km/h (2 Bft)
14.08.2018 09:15 16,9 C 93 % 1008,2 hPa 0,0 l/m 2,8 km/h (1 Bft) SW 232 6,4 km/h (2 Bft)
14.08.2018 09:10 16,9 C 93 % 1008,1 hPa 0,0 l/m 2,4 km/h (1 Bft) W-SW 251 6,4 km/h (2 Bft)
14.08.2018 09:05 16,9 C 92 % 1008,1 hPa 0,0 l/m 1,4 km/h (1 Bft) W-SW 242 3,2 km/h (1 Bft)
14.08.2018 09:00 16,9 C 92 % 1008,1 hPa 0,0 l/m 0,7 km/h (0 Bft) W-SW 242 3,2 km/h (1 Bft)
14.08.2018 08:55 16,9 C 92 % 1008,0 hPa 0,0 l/m 2,2 km/h (1 Bft) W-SW 242 4,8 km/h (1 Bft)
14.08.2018 08:50 16,9 C 92 % 1008,0 hPa 0,0 l/m 3,6 km/h (1 Bft) W-SW 254 6,4 km/h (2 Bft)
14.08.2018 08:45 16,9 C 92 % 1008,0 hPa 0,0 l/m 2,9 km/h (1 Bft) W-SW 251 6,4 km/h (2 Bft)
14.08.2018 08:40 16,9 C 91 % 1007,9 hPa 0,0 l/m 4,5 km/h (1 Bft) W-SW 257 9,7 km/h (2 Bft)
14.08.2018 08:35 16,9 C 91 % 1007,9 hPa 0,2 l/m 4,6 km/h (1 Bft) W 274 9,7 km/h (2 Bft)
14.08.2018 08:30 17,0 C 91 % 1007,9 hPa 0,0 l/m 4,5 km/h (1 Bft) W 268 11,3 km/h (2 Bft)
14.08.2018 08:25 17,0 C 91 % 1007,8 hPa 0,0 l/m 5,8 km/h (2 Bft) SW 219 11,3 km/h (2 Bft)
14.08.2018 08:20 17,0 C 91 % 1007,9 hPa 0,0 l/m 4,0 km/h (1 Bft) W-SW 238 9,7 km/h (2 Bft)
14.08.2018 08:15 17,1 C 90 % 1007,9 hPa 0,0 l/m 3,8 km/h (1 Bft) W 269 8,0 km/h (2 Bft)
14.08.2018 08:10 17,1 C 90 % 1007,9 hPa 0,0 l/m 4,6 km/h (1 Bft) SW 236 11,3 km/h (2 Bft)
14.08.2018 08:05 17,0 C 90 % 1007,9 hPa 0,0 l/m 5,1 km/h (1 Bft) W-NW 299 12,9 km/h (3 Bft)
14.08.2018 08:00 17,0 C 90 % 1007,8 hPa 0,0 l/m 5,2 km/h (1 Bft) W-SW 257 12,9 km/h (3 Bft)
14.08.2018 07:55 17,0 C 90 % 1007,8 hPa 0,0 l/m 8,5 km/h (2 Bft) W-SW 256 14,5 km/h (3 Bft)
14.08.2018 07:50 17,0 C 90 % 1007,7 hPa 0,0 l/m 8,4 km/h (2 Bft) SW 225 17,7 km/h (3 Bft)
14.08.2018 07:45 17,0 C 89 % 1007,8 hPa 0,0 l/m 4,6 km/h (1 Bft) W 267 11,3 km/h (2 Bft)
14.08.2018 07:40 17,0 C 89 % 1007,7 hPa 0,0 l/m 6,1 km/h (2 Bft) W-SW 240 12,9 km/h (3 Bft)
14.08.2018 07:35 17,0 C 89 % 1007,6 hPa 0,0 l/m 8,2 km/h (2 Bft) W-SW 242 16,1 km/h (3 Bft)
14.08.2018 07:30 17,0 C 89 % 1007,6 hPa 0,0 l/m 4,8 km/h (1 Bft) W-SW 251 11,3 km/h (2 Bft)
14.08.2018 07:25 17,0 C 89 % 1007,6 hPa 0,0 l/m 5,5 km/h (1 Bft) W 278 14,5 km/h (3 Bft)
14.08.2018 07:20 17,0 C 89 % 1007,6 hPa 0,0 l/m 4,7 km/h (1 Bft) W 261 14,5 km/h (3 Bft)
14.08.2018 07:15 17,0 C 89 % 1007,5 hPa 0,0 l/m 6,7 km/h (2 Bft) W-SW 243 14,5 km/h (3 Bft)
14.08.2018 07:10 17,0 C 89 % 1007,4 hPa 0,0 l/m 6,1 km/h (2 Bft) NW 305 12,9 km/h (3 Bft)
14.08.2018 07:05 17,0 C 89 % 1007,4 hPa 0,0 l/m 6,6 km/h (2 Bft) W 263 14,5 km/h (3 Bft)
14.08.2018 07:00 16,9 C 89 % 1007,3 hPa 0,0 l/m 9,2 km/h (2 Bft) NW 309 17,7 km/h (3 Bft)
14.08.2018 06:55 16,9 C 89 % 1007,3 hPa 0,0 l/m 8,7 km/h (2 Bft) W 274 17,7 km/h (3 Bft)
14.08.2018 06:50 16,9 C 88 % 1007,3 hPa 0,0 l/m 8,4 km/h (2 Bft) SW 233 16,1 km/h (3 Bft)
14.08.2018 06:45 16,9 C 88 % 1007,2 hPa 0,0 l/m 7,8 km/h (2 Bft) W-SW 251 17,7 km/h (3 Bft)
14.08.2018 06:40 16,9 C 88 % 1007,2 hPa 0,0 l/m 5,8 km/h (2 Bft) W 269 16,1 km/h (3 Bft)
14.08.2018 06:35 16,9 C 88 % 1007,1 hPa 0,0 l/m 9,0 km/h (2 Bft) W-SW 242 17,7 km/h (3 Bft)
14.08.2018 06:30 16,9 C 88 % 1007,1 hPa 0,0 l/m 10,3 km/h (2 Bft) W-NW 288 19,3 km/h (3 Bft)
14.08.2018 06:25 17,0 C 88 % 1007,1 hPa 0,0 l/m 8,8 km/h (2 Bft) W-NW 285 16,1 km/h (3 Bft)
14.08.2018 06:20 17,0 C 88 % 1007,1 hPa 0,0 l/m 7,3 km/h (2 Bft) W-NW 291 14,5 km/h (3 Bft)
14.08.2018 06:15 17,0 C 88 % 1007,1 hPa 0,0 l/m 9,3 km/h (2 Bft) W-SW 248 17,7 km/h (3 Bft)
14.08.2018 06:10 17,1 C 89 % 1007,1 hPa 0,0 l/m 6,6 km/h (2 Bft) W 274 17,7 km/h (3 Bft)
14.08.2018 06:05 17,1 C 89 % 1007,1 hPa 0,0 l/m 7,3 km/h (2 Bft) W-SW 251 14,5 km/h (3 Bft)
14.08.2018 06:00 17,1 C 89 % 1007,1 hPa 0,0 l/m 9,3 km/h (2 Bft) W-SW 247 19,3 km/h (3 Bft)
_ Min-Zeit 06:30 10:55 00:00 - 09:00 - - 09:00
Minimum _ 16,9 C 81 % 1006,3 hPa - 0,7 km/h (0 Bft) - - 3,2 km/h (1 Bft)
_ Max-Zeit 11:00 09:10 10:35 08:35 04:05 - - 04:05
Maximum _ 19,8 C 93 % 1008,7 hPa 0,2 l/m 11,5 km/h
W (2 Bft)
- - 22,5 km/h
W (4 Bft)
Durchschnitt _ 17,3 C 89 % 1007,3 hPa #0,2 l/m 6,3 km/h (2 Bft) W - 13,9 km/h (3 Bft)

nach oben

Copyright 2006 - 2018 fr den gesamten Inhalt der Webseite